Time;durP1;ratioP1;P1;durP2;ratioP2;P2;SDS_P1;SDS_P2;PMS_P1;PMS_P2;Temp;Humidity;BMP_temperature;BMP_pressure;BME280_temperature;BME280_humidity;BME280_pressure;Samples;Min_cycle;Max_cycle;Signal;HPM_P1;HPM_P2
2023/02/20 00:01:28;;;;;;;22.65;17.42;;;;;;;4.26;100.00;96838.72;5123243;27;20072;-61
2023/02/20 00:03:54;;;;;;;21.48;16.27;;;;;;;4.20;100.00;96844.22;5120165;27;20084;-62
2023/02/20 00:06:19;;;;;;;21.15;17.05;;;;;;;4.13;100.00;96838.47;5122524;27;20019;-61
2023/02/20 00:08:45;;;;;;;21.42;15.20;;;;;;;4.09;100.00;96845.59;5118928;27;20058;-70
2023/02/20 00:11:10;;;;;;;20.38;15.65;;;;;;;4.06;100.00;96843.13;5116354;27;20032;-61
2023/02/20 00:13:35;;;;;;;21.48;15.13;;;;;;;4.05;100.00;96845.81;5119525;27;20790;-61
2023/02/20 00:16:01;;;;;;;18.33;15.50;;;;;;;4.06;100.00;96847.50;5120435;27;20504;-61
2023/02/20 00:18:26;;;;;;;18.67;16.00;;;;;;;4.08;100.00;96856.06;5119309;27;20168;-61
2023/02/20 00:20:51;;;;;;;19.77;14.73;;;;;;;4.07;100.00;96849.19;5119328;27;20061;-61
2023/02/20 00:23:17;;;;;;;19.30;14.68;;;;;;;4.09;100.00;96847.34;5118801;27;20027;-60
2023/02/20 00:25:42;;;;;;;19.80;14.75;;;;;;;4.11;100.00;96853.34;5121040;27;20038;-61
2023/02/20 00:28:08;;;;;;;20.85;14.50;;;;;;;4.13;100.00;96854.13;5119944;27;20401;-63
2023/02/20 00:30:33;;;;;;;20.15;13.73;;;;;;;4.21;100.00;96858.97;5120471;27;20016;-70
2023/02/20 00:32:59;;;;;;;17.63;13.80;;;;;;;4.29;100.00;96862.03;5119791;27;20200;-60
2023/02/20 00:35:25;;;;;;;18.00;12.85;;;;;;;4.39;100.00;96857.22;5122211;27;20063;-59
2023/02/20 00:37:52;;;;;;;13.70;11.35;;;;;;;4.47;100.00;96857.69;5118604;27;20058;-60
2023/02/20 00:40:20;;;;;;;11.52;9.15;;;;;;;4.55;100.00;96852.09;5101078;27;20492;-59
2023/02/20 00:42:46;;;;;;;8.00;7.25;;;;;;;4.61;100.00;96848.34;5118685;27;20060;-59
2023/02/20 00:45:13;;;;;;;8.13;7.32;;;;;;;4.64;100.00;96853.41;5117710;27;20502;-60
2023/02/20 00:47:38;;;;;;;10.93;7.90;;;;;;;4.70;100.00;96861.78;5121339;27;20400;-61
2023/02/20 00:50:05;;;;;;;8.55;7.50;;;;;;;4.71;100.00;96863.47;5117281;27;20053;-61
2023/02/20 00:52:31;;;;;;;8.57;7.72;;;;;;;4.73;100.00;96869.44;5123678;27;20031;-63
2023/02/20 00:54:56;;;;;;;9.40;7.55;;;;;;;4.78;100.00;96868.34;5117823;27;20071;-62
2023/02/20 00:57:21;;;;;;;7.82;7.10;;;;;;;4.78;100.00;96866.59;5120144;27;20027;-62
2023/02/20 00:59:47;;;;;;;8.93;7.75;;;;;;;4.79;100.00;96867.44;5118308;27;20031;-62
2023/02/20 01:02:12;;;;;;;8.18;6.82;;;;;;;4.82;100.00;96865.53;5120937;27;20054;-62
2023/02/20 01:04:37;;;;;;;7.75;7.00;;;;;;;4.90;100.00;96856.47;5118661;27;20023;-62
2023/02/20 01:07:03;;;;;;;10.65;9.65;;;;;;;4.94;100.00;96851.00;5117112;27;21166;-63
2023/02/20 01:09:28;;;;;;;7.68;6.82;;;;;;;4.97;100.00;96844.78;5120851;27;20476;-63
2023/02/20 01:11:54;;;;;;;8.00;7.15;;;;;;;5.02;100.00;96838.41;5116638;27;20031;-61
2023/02/20 01:14:20;;;;;;;16.10;14.45;;;;;;;5.06;100.00;96843.47;5116941;27;20019;-61
2023/02/20 01:16:50;;;;;;;50.40;34.65;;;;;;;5.07;100.00;96840.78;5118694;27;20019;-61
2023/02/20 01:19:16;;;;;;;14.70;11.70;;;;;;;5.10;100.00;96831.97;5117304;27;20031;-61
2023/02/20 01:21:41;;;;;;;13.10;10.20;;;;;;;5.12;100.00;96828.31;5119812;27;20032;-62
2023/02/20 01:24:06;;;;;;;8.20;5.88;;;;;;;5.11;100.00;96829.25;5119094;27;20259;-61
2023/02/20 01:26:32;;;;;;;6.35;5.75;;;;;;;5.08;100.00;96831.16;5116989;27;20119;-62
2023/02/20 01:28:57;;;;;;;6.57;5.97;;;;;;;5.02;100.00;96827.97;5119317;27;20054;-70
2023/02/20 01:31:22;;;;;;;6.97;6.38;;;;;;;4.98;100.00;96836.06;5116524;27;20023;-71
2023/02/20 01:33:48;;;;;;;6.15;5.65;;;;;;;5.03;100.00;96828.81;5118617;27;20027;-70
2023/02/20 01:36:13;;;;;;;6.55;5.95;;;;;;;5.08;100.00;96831.16;5117999;27;20027;-71
2023/02/20 01:38:40;;;;;;;6.50;6.00;;;;;;;5.09;100.00;96836.31;5118094;27;20132;-71
2023/02/20 01:41:07;;;;;;;7.05;6.35;;;;;;;5.05;100.00;96841.78;5118375;27;20023;-70
2023/02/20 01:43:33;;;;;;;7.28;6.10;;;;;;;5.07;100.00;96840.78;5118691;27;20126;-71
2023/02/20 01:46:23;;;;;;;6.20;5.70;;;;;;;5.06;100.00;96839.09;5117408;27;20111;-61
2023/02/20 01:48:49;;;;;;;11.43;9.95;;;;;;;5.04;100.00;96835.72;5117287;27;20023;-61
2023/02/20 01:51:15;;;;;;;10.75;8.73;;;;;;;5.05;100.00;96833.94;5118861;27;20045;-61
2023/02/20 01:53:40;;;;;;;9.85;8.68;;;;;;;5.05;100.00;96828.72;5118334;27;20026;-61
2023/02/20 01:56:07;;;;;;;8.45;7.72;;;;;;;5.07;100.00;96830.34;5117929;27;20025;-60
2023/02/20 01:58:38;;;;;;;10.65;8.80;;;;;;;5.07;100.00;96819.91;5116989;27;20087;-61
2023/02/20 02:01:05;;;;;;;7.35;6.75;;;;;;;5.06;100.00;96817.34;5119712;27;20382;-60
2023/02/20 02:03:35;;;;;;;7.70;6.90;;;;;;;5.01;100.00;96809.78;5121698;27;20055;-61
2023/02/20 02:06:04;;;;;;;7.13;6.43;;;;;;;5.04;100.00;96808.75;5115114;27;20058;-61
2023/02/20 02:08:32;;;;;;;6.82;6.28;;;;;;;5.06;100.00;96804.31;5115933;27;20110;-70
2023/02/20 02:11:04;;;;;;;7.22;6.53;;;;;;;5.06;100.00;96794.72;5115066;27;20480;-70
2023/02/20 02:13:30;;;;;;;9.07;6.38;;;;;;;5.10;100.00;96793.63;5117851;27;20128;-71
2023/02/20 02:16:21;;;;;;;9.45;7.15;;;;;;;5.13;100.00;96795.25;5112608;27;20027;-71
2023/02/20 02:19:07;;;;;;;7.75;6.97;;;;;;;5.12;100.00;96799.59;5114653;27;20062;-71
2023/02/20 02:22:01;;;;;;;7.43;6.82;;;;;;;5.14;100.00;96802.16;5116786;27;20026;-71
2023/02/20 02:25:03;;;;;;;7.95;6.80;;;;;;;5.21;100.00;96805.28;5115591;27;20736;-59
2023/02/20 02:27:50;;;;;;;7.10;6.45;;;;;;;5.27;100.00;96802.34;5119211;27;20540;-59
2023/02/20 02:30:40;;;;;;;7.20;6.60;;;;;;;5.33;100.00;96804.63;5114670;27;20041;-60
2023/02/20 02:33:17;;;;;;;8.90;8.10;;;;;;;5.35;100.00;96802.75;5108933;27;20142;-60
2023/02/20 02:36:10;;;;;;;8.82;7.47;;;;;;;5.32;100.00;96797.72;5116416;27;20040;-59
2023/02/20 02:38:42;;;;;;;8.85;7.72;;;;;;;5.31;100.00;96790.81;5116567;27;20026;-59
2023/02/20 02:41:39;;;;;;;7.00;6.38;;;;;;;5.39;100.00;96793.84;5116809;27;20035;-59
2023/02/20 02:44:07;;;;;;;7.25;5.45;;;;;;;5.32;100.00;96792.50;5115690;27;20023;-64
2023/02/20 02:46:42;;;;;;;8.15;7.38;;;;;;;5.28;100.00;96785.75;5117335;27;20476;-59
2023/02/20 02:49:28;;;;;;;6.05;5.60;;;;;;;5.24;100.00;96789.44;5118214;27;20031;-59
2023/02/20 02:51:55;;;;;;;5.35;4.95;;;;;;;5.20;100.00;96791.38;5116212;27;20050;-59
2023/02/20 02:54:26;;;;;;;5.15;4.75;;;;;;;5.21;100.00;96789.63;5119214;27;20062;-61
2023/02/20 02:56:53;;;;;;;4.90;4.43;;;;;;;5.22;100.00;96784.31;5117238;27;20037;-59
2023/02/20 02:59:28;;;;;;;5.60;5.10;;;;;;;5.19;100.00;96787.06;5112728;27;20481;-59
2023/02/20 03:02:02;;;;;;;4.82;4.53;;;;;;;5.16;100.00;96792.47;5112607;27;20031;-61
2023/02/20 03:04:30;;;;;;;5.13;4.72;;;;;;;5.10;100.00;96792.81;5115489;27;20036;-60
2023/02/20 03:07:01;;;;;;;6.28;4.38;;;;;;;5.17;100.00;96794.16;5118368;27;20026;-59
2023/02/20 03:09:31;;;;;;;4.88;4.47;;;;;;;5.24;99.43;96792.06;5116099;27;20031;-57
2023/02/20 03:12:00;;;;;;;5.30;4.82;;;;;;;5.26;98.52;96795.44;5122887;28;20378;-57
2023/02/20 03:17:28;;;;;;;5.50;4.97;;;;;;;5.32;97.28;96796.88;5118811;27;20029;-58
2023/02/20 03:19:58;;;;;;;6.15;5.63;;;;;;;5.36;96.67;96803.63;5121811;27;20027;-57
2023/02/20 03:22:29;;;;;;;6.35;5.78;;;;;;;5.29;96.55;96805.72;5119781;27;20043;-61
2023/02/20 03:25:12;;;;;;;6.40;5.85;;;;;;;5.20;97.22;96799.22;5122906;27;20117;-60
2023/02/20 03:28:00;;;;;;;28.63;21.63;;;;;;;5.15;97.26;96801.22;5120398;27;20057;-61
2023/02/20 03:30:35;;;;;;;26.35;20.52;;;;;;;5.15;96.94;96802.06;5099840;27;20076;-61
2023/02/20 03:44:15;;;;;;;4.63;4.22;;;;;;;5.10;98.63;96813.69;5120372;27;20062;-61
2023/02/20 03:46:44;;;;;;;5.47;5.00;;;;;;;5.12;97.68;96811.84;5102299;27;20054;-61
2023/02/20 03:49:13;;;;;;;5.63;4.43;;;;;;;5.12;97.68;96811.84;5120001;27;20477;-61
2023/02/20 03:51:40;;;;;;;4.82;4.45;;;;;;;5.14;98.34;96804.75;5118759;27;20019;-62
2023/02/20 03:54:06;;;;;;;4.25;3.95;;;;;;;5.10;98.24;96814.50;5122650;27;20015;-62
2023/02/20 03:56:40;;;;;;;4.35;3.95;;;;;;;5.12;97.97;96799.59;5120360;27;20028;-62
2023/02/20 03:59:13;;;;;;;4.70;4.40;;;;;;;5.15;97.14;96799.44;5119105;27;20019;-62
2023/02/20 04:01:41;;;;;;;5.38;4.63;;;;;;;5.11;97.42;96795.31;5121326;27;20023;-62
2023/02/20 04:04:13;;;;;;;5.25;4.88;;;;;;;5.11;97.80;96799.72;5121447;27;20560;-62
2023/02/20 04:06:40;;;;;;;5.10;4.68;;;;;;;5.07;98.36;96788.56;5119548;27;20063;-62
2023/02/20 04:09:15;;;;;;;5.68;5.22;;;;;;;5.07;98.94;96788.56;5119968;27;20070;-62
2023/02/20 04:11:46;;;;;;;;;;;;;;;5.07;99.82;96788.56;5119253;27;20056;-62
2023/02/20 04:14:16;;;;;;;7.80;7.00;;;;;;;5.05;99.35;96774.75;5118145;27;19933;-62
2023/02/20 04:16:57;;;;;;;6.70;6.15;;;;;;;5.00;100.00;96782.81;5099521;27;20023;-61
2023/02/20 04:19:23;;;;;;;6.07;5.53;;;;;;;5.03;99.24;96781.84;5120099;27;20537;-61
2023/02/20 04:21:55;;;;;;;6.35;5.85;;;;;;;5.06;99.20;96786.88;5103415;27;20031;-63
2023/02/20 04:24:33;;;;;;;6.03;5.53;;;;;;;5.00;99.96;96790.66;5119605;27;20553;-62
2023/02/20 04:26:59;;;;;;;6.63;5.78;;;;;;;4.94;100.00;96782.28;5121816;27;20028;-62
2023/02/20 04:29:25;;;;;;;7.80;7.10;;;;;;;4.95;100.00;96794.41;5118772;27;20107;-61
2023/02/20 04:31:50;;;;;;;6.22;5.72;;;;;;;4.90;100.00;96791.22;5118282;27;20114;-62
2023/02/20 04:34:16;;;;;;;7.28;5.60;;;;;;;5.05;99.64;96795.66;5119922;27;20113;-61
2023/02/20 04:36:41;;;;;;;6.07;5.40;;;;;;;5.10;99.63;96796.25;5117630;27;20106;-61
2023/02/20 04:39:06;;;;;;;5.43;4.55;;;;;;;4.98;99.53;96792.50;5120155;27;20027;-60
2023/02/20 04:41:32;;;;;;;5.28;4.97;;;;;;;4.91;99.98;96800.72;5119684;27;20392;-62
2023/02/20 04:46:41;;;;;;;5.82;5.07;;;;;;;4.74;100.00;96805.03;5119544;27;20033;-62
2023/02/20 04:49:06;;;;;;;5.82;5.32;;;;;;;4.78;100.00;96801.38;5118117;27;20023;-62
2023/02/20 04:51:32;;;;;;;6.28;5.55;;;;;;;4.67;100.00;96812.38;5119710;27;20024;-62
2023/02/20 04:53:57;;;;;;;7.72;7.03;;;;;;;4.65;100.00;96814.22;5118247;27;20034;-63
2023/02/20 04:56:22;;;;;;;7.40;6.70;;;;;;;4.58;100.00;96808.44;5119543;27;20023;-62
2023/02/20 04:58:48;;;;;;;7.32;6.60;;;;;;;4.59;100.00;96814.50;5117903;27;20022;-62
2023/02/20 05:01:14;;;;;;;7.15;6.55;;;;;;;4.67;100.00;96812.38;5117736;27;20034;-62
2023/02/20 05:03:40;;;;;;;7.43;6.82;;;;;;;4.59;100.00;96809.28;5117291;27;20026;-62
2023/02/20 05:06:05;;;;;;;6.70;6.18;;;;;;;4.63;100.00;96817.81;5116461;27;20026;-62
2023/02/20 05:08:31;;;;;;;6.57;5.93;;;;;;;4.51;100.00;96812.25;5120706;27;20068;-62
2023/02/20 05:10:56;;;;;;;7.88;7.22;;;;;;;4.41;100.00;96805.84;5119296;27;20042;-62
2023/02/20 05:13:21;;;;;;;7.93;7.28;;;;;;;4.32;100.00;96801.91;5119760;27;20035;-62
2023/02/20 05:15:47;;;;;;;6.55;5.95;;;;;;;4.22;100.00;96801.53;5114049;27;20027;-62
2023/02/20 05:18:12;;;;;;;6.95;6.38;;;;;;;4.11;100.00;96793.41;5109378;28;20777;-64
2023/02/20 05:23:21;;;;;;;8.23;6.70;;;;;;;3.96;100.00;96803.66;5106484;28;20115;-59
2023/02/20 05:25:47;;;;;;;8.13;7.40;;;;;;;4.05;100.00;96799.75;5111501;28;20110;-59
2023/02/20 05:28:13;;;;;;;6.75;6.05;;;;;;;3.99;100.00;96800.06;5111243;28;20058;-59
2023/02/20 05:30:39;;;;;;;9.73;7.07;;;;;;;3.90;100.00;96800.47;5111427;28;20134;-59
2023/02/20 05:33:04;;;;;;;7.63;6.97;;;;;;;3.75;100.00;96794.25;5111176;28;20120;-59
2023/02/20 05:35:30;;;;;;;8.30;7.50;;;;;;;3.72;100.00;96797.81;5110307;28;20592;-62
2023/02/20 05:37:55;;;;;;;7.80;7.10;;;;;;;3.63;100.00;96804.31;5111001;28;20439;-70
2023/02/20 05:40:20;;;;;;;7.82;7.13;;;;;;;3.53;100.00;96796.06;5091469;28;20034;-58
2023/02/20 05:42:46;;;;;;;7.07;6.47;;;;;;;3.52;100.00;96806.59;5110633;28;20094;-57
2023/02/20 05:45:12;;;;;;;10.18;9.27;;;;;;;3.39;100.00;96804.53;5111234;28;20051;-57
2023/02/20 05:47:37;;;;;;;8.73;7.97;;;;;;;3.34;100.00;96797.88;5110758;28;20023;-58
2023/02/20 05:50:03;;;;;;;7.72;6.93;;;;;;;3.23;100.00;96790.53;5111142;28;20027;-59
2023/02/20 05:52:28;;;;;;;15.68;8.75;;;;;;;3.36;100.00;96798.63;5110814;28;20098;-59
2023/02/20 05:54:54;;;;;;;7.90;7.10;;;;;;;3.40;100.00;96803.59;5111102;28;20034;-61
2023/02/20 05:57:19;;;;;;;7.85;7.07;;;;;;;3.36;100.00;96796.88;5110470;28;20023;-59
2023/02/20 05:59:44;;;;;;;7.60;6.90;;;;;;;3.27;100.00;96802.50;5110951;28;20026;-62
2023/02/20 06:02:10;;;;;;;9.35;7.18;;;;;;;3.22;100.00;96804.47;5117982;27;20027;-61
2023/02/20 06:04:35;;;;;;;8.98;6.95;;;;;;;3.18;100.00;96797.69;5110641;28;20107;-62
2023/02/20 06:07:00;;;;;;;9.95;7.45;;;;;;;3.20;100.00;96801.06;5110561;28;20098;-62
2023/02/20 06:09:26;;;;;;;8.73;7.38;;;;;;;3.11;100.00;96797.97;5111197;28;20099;-62
2023/02/20 06:11:54;;;;;;;8.23;7.47;;;;;;;3.02;100.00;96801.00;5110529;28;20011;-62
2023/02/20 06:14:21;;;;;;;8.07;7.32;;;;;;;2.95;100.00;96802.16;5111067;28;20019;-64
2023/02/20 06:16:47;;;;;;;8.10;7.40;;;;;;;2.91;100.00;96800.63;5109803;28;20020;-60
2023/02/20 06:19:21;;;;;;;7.05;6.55;;;;;;;2.90;100.00;96791.13;5110436;28;20382;-62
2023/02/20 06:21:47;;;;;;;7.22;6.35;;;;;;;2.92;100.00;96792.75;5098170;28;20023;-62
2023/02/20 06:24:13;;;;;;;7.13;6.57;;;;;;;2.86;100.00;96793.88;5108997;28;20489;-62
2023/02/20 06:26:40;;;;;;;8.27;7.35;;;;;;;2.78;100.00;96789.91;5108229;28;20035;-62
2023/02/20 06:29:06;;;;;;;8.13;7.43;;;;;;;2.72;100.00;96788.41;5110303;28;20019;-62
2023/02/20 06:31:31;;;;;;;7.53;6.93;;;;;;;2.70;100.00;96790.22;5108947;28;20641;-62
2023/02/20 06:33:56;;;;;;;6.57;6.07;;;;;;;2.68;100.00;96792.06;5105205;28;20027;-64
2023/02/20 06:36:29;;;;;;;7.95;7.25;;;;;;;2.75;100.00;96796.06;5087848;28;20084;-71
2023/02/20 06:38:54;;;;;;;7.65;6.95;;;;;;;2.77;100.00;96789.06;5094555;28;20073;-64
2023/02/20 06:41:20;;;;;;;7.88;7.10;;;;;;;2.78;100.00;96782.97;5093117;28;20027;-64
2023/02/20 06:43:45;;;;;;;6.50;6.00;;;;;;;2.78;100.00;96788.16;5088734;28;20024;-64
2023/02/20 06:46:11;;;;;;;18.25;13.88;;;;;;;2.71;100.00;96789.31;5088183;28;20036;-63
2023/02/20 06:48:50;;;;;;;10.15;9.15;;;;;;;2.64;100.00;96795.69;5089843;28;20024;-65
2023/02/20 06:51:20;;;;;;;10.13;9.10;;;;;;;2.62;100.00;96800.97;5089659;28;20073;-65
2023/02/20 06:53:46;;;;;;;9.93;8.70;;;;;;;2.63;100.00;96792.25;5092754;28;20533;-61
2023/02/20 06:56:18;;;;;;;9.13;8.38;;;;;;;2.65;100.00;96802.59;5089448;28;20032;-60
2023/02/20 06:58:48;;;;;;;8.27;7.68;;;;;;;2.62;100.00;96806.16;5087770;28;20123;-64
2023/02/20 07:01:15;;;;;;;9.80;7.78;;;;;;;2.59;100.00;96801.09;5090057;28;20032;-65
2023/02/20 07:03:40;;;;;;;7.40;6.80;;;;;;;2.54;100.00;96798.72;5091648;28;20053;-66
2023/02/20 07:06:06;;;;;;;6.93;6.40;;;;;;;2.57;100.00;96802.91;5091965;28;20028;-65
2023/02/20 07:08:31;;;;;;;7.53;6.68;;;;;;;2.62;100.00;96800.13;5091537;28;20021;-63
2023/02/20 07:10:56;;;;;;;7.32;6.68;;;;;;;2.65;100.00;96807.78;5097695;28;20100;-63
2023/02/20 07:13:22;;;;;;;7.10;6.50;;;;;;;2.70;100.00;96808.44;5094111;28;20035;-62
2023/02/20 07:15:48;;;;;;;7.10;6.50;;;;;;;2.76;100.00;96802.97;5088411;28;20107;-62
2023/02/20 07:18:14;;;;;;;10.10;7.70;;;;;;;2.81;100.00;96806.22;5087955;28;20169;-61
2023/02/20 07:20:39;;;;;;;8.30;7.50;;;;;;;2.90;100.00;96806.72;5086150;28;20529;-61
2023/02/20 07:23:04;;;;;;;9.35;8.45;;;;;;;3.06;100.00;96805.16;5093150;28;20066;-64
2023/02/20 07:25:30;;;;;;;9.80;8.80;;;;;;;3.20;100.00;96812.34;5089705;28;20058;-63
2023/02/20 07:27:55;;;;;;;9.32;7.78;;;;;;;3.30;100.00;96810.16;5087355;28;20039;-62
2023/02/20 07:30:23;;;;;;;10.57;9.52;;;;;;;3.34;100.00;96808.28;5092655;28;20039;-63
2023/02/20 07:32:49;;;;;;;12.00;10.98;;;;;;;3.41;100.00;96815.72;5088647;28;20030;-73
2023/02/20 07:35:14;;;;;;;13.45;11.93;;;;;;;3.51;100.00;96815.31;5090371;28;20040;-63
2023/02/20 07:37:40;;;;;;;14.25;11.13;;;;;;;3.55;100.00;96817.72;5089309;28;20112;-62
2023/02/20 07:40:06;;;;;;;11.10;10.18;;;;;;;3.72;100.00;96823.88;5091570;28;20051;-63
2023/02/20 07:42:31;;;;;;;14.00;12.68;;;;;;;3.82;100.00;96817.34;5090584;28;20032;-63
2023/02/20 07:44:57;;;;;;;9.13;8.32;;;;;;;3.89;100.00;96824.84;5096947;28;20011;-64
2023/02/20 07:47:22;;;;;;;11.43;10.35;;;;;;;3.91;100.00;96828.22;5100180;28;20069;-64
2023/02/20 07:49:47;;;;;;;17.20;12.07;;;;;;;3.94;100.00;96820.25;5095556;28;20020;-63
2023/02/20 07:52:13;;;;;;;12.18;10.18;;;;;;;3.97;100.00;96828.78;5097359;28;20514;-61
2023/02/20 07:54:38;;;;;;;12.70;11.48;;;;;;;4.03;100.00;96832.00;5086961;28;20039;-64
2023/02/20 07:57:03;;;;;;;21.85;15.35;;;;;;;4.03;100.00;96827.66;5088057;28;20024;-65
2023/02/20 07:59:29;;;;;;;13.43;10.60;;;;;;;4.11;100.00;96820.28;5096106;28;20106;-65
2023/02/20 08:01:54;;;;;;;9.20;8.50;;;;;;;4.21;100.00;96812.06;5090868;28;20047;-65
2023/02/20 08:04:19;;;;;;;9.48;8.60;;;;;;;4.24;100.00;96815.31;5090068;28;20028;-68
2023/02/20 08:06:45;;;;;;;9.55;8.65;;;;;;;4.24;100.00;96820.53;5091440;28;20028;-66
2023/02/20 08:09:10;;;;;;;8.75;8.05;;;;;;;4.23;100.00;96823.25;5088385;28;20035;-66
2023/02/20 08:11:36;;;;;;;9.75;7.95;;;;;;;4.16;100.00;96820.09;5090264;28;20023;-66
2023/02/20 08:14:04;;;;;;;11.65;10.23;;;;;;;4.15;100.00;96821.81;5091403;28;20557;-66
2023/02/20 08:16:29;;;;;;;12.05;10.93;;;;;;;4.12;100.00;96826.38;5092052;28;20489;-66
2023/02/20 08:18:55;;;;;;;10.70;9.65;;;;;;;4.11;100.00;96825.50;5091835;28;20023;-66
2023/02/20 08:21:21;;;;;;;11.45;9.05;;;;;;;4.05;100.00;96820.59;5087320;28;20085;-66
2023/02/20 08:23:46;;;;;;;9.98;9.05;;;;;;;4.01;100.00;96819.91;5087993;28;20478;-66
2023/02/20 08:26:12;;;;;;;8.77;7.97;;;;;;;4.06;100.00;96816.22;5090475;28;20028;-66
2023/02/20 08:28:37;;;;;;;14.75;9.27;;;;;;;4.19;100.00;96814.72;5089790;28;20115;-66
2023/02/20 08:31:03;;;;;;;13.32;9.20;;;;;;;4.54;100.00;96814.75;5091099;28;20028;-64
2023/02/20 08:33:28;;;;;;;13.25;9.50;;;;;;;5.08;100.00;96815.50;5092068;28;20035;-61
2023/02/20 08:35:56;;;;;;;9.65;8.70;;;;;;;5.68;97.85;96809.72;5109489;28;20063;-61
2023/02/20 08:38:24;;;;;;;8.98;8.07;;;;;;;6.11;94.09;96816.13;5109641;28;20515;-61
2023/02/20 08:40:49;;;;;;;10.98;7.53;;;;;;;6.44;91.76;96812.50;5112019;28;20076;-61
2023/02/20 08:43:15;;;;;;;8.52;7.72;;;;;;;6.56;89.60;96811.81;5111334;28;20405;-62
2023/02/20 08:45:40;;;;;;;7.80;7.00;;;;;;;6.91;87.43;96813.28;5112611;28;20485;-62
2023/02/20 08:48:06;;;;;;;7.85;7.18;;;;;;;7.14;86.51;96803.19;5112311;28;20473;-62
2023/02/20 08:50:31;;;;;;;7.40;6.70;;;;;;;7.18;86.49;96802.06;5112102;28;20437;-65
2023/02/20 08:52:56;;;;;;;7.97;7.13;;;;;;;7.52;85.90;96807.00;5111973;28;20019;-66
2023/02/20 08:55:23;;;;;;;8.57;7.43;;;;;;;7.75;83.36;96797.69;5112140;28;20529;-67
2023/02/20 08:57:48;;;;;;;6.75;6.15;;;;;;;7.87;84.31;96799.53;5111839;28;20493;-67
2023/02/20 09:00:16;;;;;;;7.85;7.10;;;;;;;7.93;83.58;96811.41;5112312;28;20059;-66
2023/02/20 09:02:41;;;;;;;9.63;7.80;;;;;;;7.98;83.22;96800.63;5119177;27;20553;-66
2023/02/20 09:05:07;;;;;;;9.05;6.75;;;;;;;7.94;82.75;96799.97;5112267;28;20023;-66
2023/02/20 09:07:32;;;;;;;8.40;6.35;;;;;;;8.10;82.48;96801.63;5111543;28;20031;-65
2023/02/20 09:09:58;;;;;;;8.02;7.22;;;;;;;8.19;81.14;96803.66;5112015;28;20114;-62
2023/02/20 09:12:23;;;;;;;12.10;8.43;;;;;;;8.35;78.78;96795.59;5093496;28;20027;-62
2023/02/20 09:14:48;;;;;;;9.23;8.32;;;;;;;8.40;78.51;96792.69;5110495;28;20016;-65
2023/02/20 09:17:15;;;;;;;7.70;6.85;;;;;;;8.22;78.73;96792.94;5111733;28;20393;-61
2023/02/20 09:19:40;;;;;;;8.02;7.20;;;;;;;8.00;81.22;96804.81;5111439;28;20503;-61
2023/02/20 09:22:05;;;;;;;10.85;7.07;;;;;;;8.25;80.64;96795.38;5111709;28;20104;-62
2023/02/20 09:24:33;;;;;;;7.53;6.93;;;;;;;8.30;79.80;96792.44;5092636;28;20401;-62
2023/02/20 09:27:00;;;;;;;7.60;7.00;;;;;;;8.47;78.89;96791.31;5112024;28;20401;-60
2023/02/20 09:29:26;;;;;;;7.22;6.72;;;;;;;8.49;78.90;96797.31;5111040;28;20474;-67
2023/02/20 09:31:51;;;;;;;8.50;7.80;;;;;;;8.65;80.09;96788.47;5103153;28;20031;-58
2023/02/20 09:34:16;;;;;;;7.35;6.75;;;;;;;8.86;78.74;96791.44;5106545;28;20043;-59
2023/02/20 09:36:42;;;;;;;8.13;7.35;;;;;;;8.74;78.87;96782.59;5111752;28;20023;-59
2023/02/20 09:39:07;;;;;;;7.90;7.18;;;;;;;8.89;78.62;96778.09;5110945;28;20476;-59
2023/02/20 09:41:54;;;;;;;8.35;7.10;;;;;;;9.00;78.53;96786.06;5111399;28;20023;-59
2023/02/20 09:44:25;;;;;;;8.38;7.60;;;;;;;9.21;76.79;96771.56;5110533;28;20023;-59
2023/02/20 09:46:52;;;;;;;7.85;6.93;;;;;;;9.59;75.12;96768.00;5111323;28;20041;-67
2023/02/20 09:49:24;;;;;;;8.38;7.65;;;;;;;9.78;73.33;96764.06;5097562;28;20019;-60
2023/02/20 09:52:00;;;;;;;8.02;7.30;;;;;;;9.74;72.78;96761.66;5110656;28;20389;-60
2023/02/20 09:54:32;;;;;;;8.25;7.13;;;;;;;9.83;73.40;96754.03;5110805;28;20038;-60
2023/02/20 09:57:05;;;;;;;8.65;7.70;;;;;;;9.85;73.70;96757.44;5110192;28;20490;-60
2023/02/20 09:59:42;;;;;;;7.93;7.10;;;;;;;9.83;72.35;96759.28;5108841;28;20026;-61
2023/02/20 10:02:18;;;;;;;8.18;7.45;;;;;;;10.08;72.99;96754.91;5117873;27;20203;-60
2023/02/20 10:04:49;;;;;;;7.72;7.13;;;;;;;10.36;69.88;96751.03;5110929;28;20084;-59
2023/02/20 10:07:28;;;;;;;7.47;6.88;;;;;;;10.74;69.75;96741.25;5110651;28;20049;-62
2023/02/20 10:09:55;;;;;;;6.95;6.38;;;;;;;10.70;69.21;96745.06;5110248;28;20659;-61
2023/02/20 10:12:39;;;;;;;7.40;6.80;;;;;;;10.84;67.89;96751.94;5110746;28;20561;-61
2023/02/20 10:15:25;;;;;;;6.80;6.00;;;;;;;11.01;67.72;96740.09;5110030;28;20023;-61
2023/02/20 10:18:15;;;;;;;7.43;6.70;;;;;;;11.20;68.11;96743.94;5110113;28;20023;-61
2023/02/20 10:21:00;;;;;;;6.32;5.82;;;;;;;11.30;66.15;96745.72;5110506;28;20035;-60
2023/02/20 10:23:51;;;;;;;6.27;5.77;;;;;;;11.35;65.82;96742.69;5098131;28;20130;-60
2023/02/20 10:26:33;;;;;;;6.75;6.15;;;;;;;11.25;64.23;96736.50;5110247;28;20572;-59
2023/02/20 10:29:13;;;;;;;6.57;6.10;;;;;;;11.17;64.41;96735.31;5110479;28;20019;-62
2023/02/20 10:31:48;;;;;;;6.63;6.13;;;;;;;11.13;65.33;96730.38;5097454;28;20401;-61
2023/02/20 10:34:42;;;;;;;7.72;7.03;;;;;;;11.24;66.63;96732.19;5108096;28;20443;-62
2023/02/20 10:37:12;;;;;;;7.35;6.75;;;;;;;11.54;63.81;96728.06;5099482;28;20036;-61
2023/02/20 10:39:45;;;;;;;7.93;7.07;;;;;;;11.50;63.74;96730.13;5102703;28;20024;-61
2023/02/20 10:42:21;;;;;;;10.98;6.80;;;;;;;11.39;65.44;96727.50;5089947;28;20039;-61
2023/02/20 10:45:02;;;;;;;7.68;7.03;;;;;;;11.86;64.11;96729.94;5092437;28;20028;-66
2023/02/20 10:47:41;;;;;;;10.77;7.07;;;;;;;12.11;62.18;96727.94;5083030;28;20052;-60
2023/02/20 10:50:07;;;;;;;6.72;6.20;;;;;;;11.97;61.33;96732.50;5095430;28;20031;-60
2023/02/20 10:52:38;;;;;;;6.63;6.20;;;;;;;12.04;62.13;96727.63;5077065;28;20505;-60
2023/02/20 10:55:19;;;;;;;6.65;6.15;;;;;;;12.54;59.40;96728.81;5089827;28;20411;-60
2023/02/20 10:58:02;;;;;;;7.28;6.68;;;;;;;12.40;60.33;96722.91;5078142;28;20379;-60
2023/02/20 11:00:46;;;;;;;6.85;6.28;;;;;;;12.12;61.10;96724.34;5078424;28;20407;-60
2023/02/20 11:03:22;;;;;;;7.80;6.28;;;;;;;12.49;59.25;96718.66;5096704;28;20028;-64
2023/02/20 11:05:53;;;;;;;6.88;6.18;;;;;;;12.69;58.86;96711.69;5089539;28;20040;-59
2023/02/20 11:08:20;;;;;;;6.75;6.05;;;;;;;12.68;58.82;96710.00;5090218;28;20020;-65
2023/02/20 11:10:54;;;;;;;6.78;6.13;;;;;;;13.01;58.25;96709.91;5080635;28;20379;-64
2023/02/20 11:13:22;;;;;;;7.25;6.55;;;;;;;13.00;57.69;96708.22;5079905;28;20055;-64
2023/02/20 11:15:52;;;;;;;8.00;6.35;;;;;;;13.20;56.81;96705.66;5092888;28;20039;-65
2023/02/20 11:18:38;;;;;;;6.70;5.90;;;;;;;13.12;56.46;96706.34;5089873;28;20028;-65
2023/02/20 11:21:04;;;;;;;6.38;5.88;;;;;;;13.58;55.55;96696.19;5087196;28;20024;-65
2023/02/20 11:23:41;;;;;;;6.07;5.57;;;;;;;13.22;56.39;96698.44;5078428;28;20081;-68
2023/02/20 11:26:24;;;;;;;7.18;6.57;;;;;;;13.84;54.69;96693.88;5087658;28;20451;-65
2023/02/20 11:28:58;;;;;;;6.05;5.43;;;;;;;13.88;52.88;96689.16;5098678;28;20099;-65
2023/02/20 11:31:24;;;;;;;6.10;5.50;;;;;;;13.88;54.18;96681.19;5084090;28;20529;-65
2023/02/20 11:33:54;;;;;;;6.45;5.85;;;;;;;14.31;52.57;96677.28;5092806;28;20020;-65
2023/02/20 11:36:24;;;;;;;5.88;5.35;;;;;;;14.43;52.27;96685.91;5084656;28;20024;-65
2023/02/20 11:38:57;;;;;;;4.88;4.47;;;;;;;14.55;50.21;96678.66;5084392;28;20063;-66
2023/02/20 11:41:35;;;;;;;5.25;4.75;;;;;;;14.66;49.93;96675.00;5080816;28;20116;-66
2023/02/20 11:44:07;;;;;;;5.40;4.90;;;;;;;14.66;50.85;96667.03;5106614;28;20062;-63
2023/02/20 11:46:32;;;;;;;5.80;4.78;;;;;;;14.77;51.49;96665.22;5103249;28;20502;-65
2023/02/20 11:49:09;;;;;;;6.32;4.97;;;;;;;14.91;48.75;96662.09;5092847;28;20058;-65
2023/02/20 11:51:47;;;;;;;6.15;4.47;;;;;;;15.24;48.80;96662.50;5093194;28;20404;-66
2023/02/20 11:54:18;;;;;;;5.00;4.50;;;;;;;15.09;48.40;96656.88;5092778;28;20024;-65
2023/02/20 11:57:05;;;;;;;5.40;4.90;;;;;;;15.08;47.97;96649.06;5093061;28;20104;-66
2023/02/20 11:59:30;;;;;;;4.88;4.47;;;;;;;14.63;49.40;96646.13;5081858;28;20020;-67
2023/02/20 12:02:19;;;;;;;5.53;4.50;;;;;;;14.60;49.00;96647.25;5097572;28;20046;-66